Accueil
METAR-TAF:

METAR-TAF

Aéroports :

Wiener Neustadt, Autriche

latitude: 47-50-36N, longitude: 016-15-29E, altitude: 272 m

Observation

Le bulletin a été fait il y a 3 heures et 23 minutes, à 14:00 UTC
Vent 11 kt de sud
Température
Pression

METAR: LOAN 051400Z 17011KT 20KM SCT030SC BKN040SC

Heure: 18:23 (17:23 UTC)

Prévision

Le bulletin a été fait il y a 5 heures et 58 minutes, à 11:25 UTC
Prévision valable du 05 à 12 UTC au 05 à 21 UTC
Vent 15 kt de sud
Visibilité 10 km ou plus
Nuages épars à une hauteur de 4000 ft
Evoluant progressivement
du 05 à 14 UTC au 05 à 16 UTC
Vent 5 kt de est/sud-est
Temporairement
du 05 à 18 UTC au 05 à 21 UTC
Visibilité: 4000 m
Nuages fragmentés à une hauteur de 500 ft
brume

TAF: LOAN 051125Z 0512/0521 18015KT 9999 SCT040 BECMG 0514/0516 12005KT TEMPO 0518/0521 4000 BR BKN005

Observations et prévisions météorologiques de plus de 4000 aéroports (messages METAR et TAF).

Les stations disponibles sont représentées par des disques jaunes et rouges sur la carte.

Passer la souris dessus pour voir le nom de la station.

Cliquer dessus pour voir les observations et prévisions météorologiques.

Pour changer de carte: cliquez sur les boutons verts avec une croix noire pour zoomer, sur le bouton vert avec un tiret pour effectuer un zoom arrière, ou sur les flèches vertes pour les cartes adjacentes.


METAR-TAF: